sensor_id;sensor_type;location;lat;lon;timestamp;P1;durP1;ratioP1;P2;durP2;ratioP2
11767;SDS011;5941;57.652;12.514;2023-04-22T00:02:13;1093.23;;;999.17;;
11767;SDS011;5941;57.652;12.514;2023-04-22T00:04:41;1120.77;;;999.90;;
11767;SDS011;5941;57.652;12.514;2023-04-22T00:07:07;1132.03;;;999.90;;
11767;SDS011;5941;57.652;12.514;2023-04-22T00:09:33;1116.97;;;999.90;;
11767;SDS011;5941;57.652;12.514;2023-04-22T00:11:59;1107.60;;;999.90;;
11767;SDS011;5941;57.652;12.514;2023-04-22T00:14:26;1072.67;;;985.33;;
11767;SDS011;5941;57.652;12.514;2023-04-22T00:16:52;1062.13;;;976.50;;
11767;SDS011;5941;57.652;12.514;2023-04-22T00:19:18;1066.53;;;980.30;;
11767;SDS011;5941;57.652;12.514;2023-04-22T00:21:44;1071.23;;;984.73;;
11767;SDS011;5941;57.652;12.514;2023-04-22T00:24:10;1072.57;;;985.03;;
11767;SDS011;5941;57.652;12.514;2023-04-22T00:26:36;1093.00;;;998.30;;
11767;SDS011;5941;57.652;12.514;2023-04-22T00:29:02;1074.07;;;985.17;;
11767;SDS011;5941;57.652;12.514;2023-04-22T00:31:27;1085.93;;;995.17;;
11767;SDS011;5941;57.652;12.514;2023-04-22T00:33:53;1063.77;;;977.87;;
11767;SDS011;5941;57.652;12.514;2023-04-22T00:36:19;1073.03;;;984.90;;
11767;SDS011;5941;57.652;12.514;2023-04-22T00:38:47;1058.37;;;973.87;;
11767;SDS011;5941;57.652;12.514;2023-04-22T00:41:14;1046.43;;;964.37;;
11767;SDS011;5941;57.652;12.514;2023-04-22T00:43:40;1052.07;;;968.10;;
11767;SDS011;5941;57.652;12.514;2023-04-22T00:46:06;1047.30;;;963.70;;
11767;SDS011;5941;57.652;12.514;2023-04-22T00:48:32;1043.27;;;961.17;;
11767;SDS011;5941;57.652;12.514;2023-04-22T00:50:58;1055.87;;;971.20;;
11767;SDS011;5941;57.652;12.514;2023-04-22T00:53:24;1051.10;;;963.67;;
11767;SDS011;5941;57.652;12.514;2023-04-22T00:55:50;1041.20;;;960.67;;
11767;SDS011;5941;57.652;12.514;2023-04-22T00:58:16;1052.00;;;969.00;;
11767;SDS011;5941;57.652;12.514;2023-04-22T01:00:43;1042.57;;;961.60;;
11767;SDS011;5941;57.652;12.514;2023-04-22T01:03:09;1038.37;;;956.90;;
11767;SDS011;5941;57.652;12.514;2023-04-22T01:05:36;1035.03;;;954.90;;
11767;SDS011;5941;57.652;12.514;2023-04-22T01:08:03;1027.40;;;948.07;;
11767;SDS011;5941;57.652;12.514;2023-04-22T01:10:29;1023.37;;;944.67;;
11767;SDS011;5941;57.652;12.514;2023-04-22T01:12:55;1053.37;;;966.37;;
11767;SDS011;5941;57.652;12.514;2023-04-22T01:15:21;1030.60;;;948.07;;
11767;SDS011;5941;57.652;12.514;2023-04-22T01:17:47;1025.20;;;945.80;;
11767;SDS011;5941;57.652;12.514;2023-04-22T01:20:13;1021.50;;;942.63;;
11767;SDS011;5941;57.652;12.514;2023-04-22T01:22:40;1006.77;;;929.67;;
11767;SDS011;5941;57.652;12.514;2023-04-22T01:25:06;1006.73;;;929.60;;
11767;SDS011;5941;57.652;12.514;2023-04-22T01:27:32;1104.67;;;995.03;;
11767;SDS011;5941;57.652;12.514;2023-04-22T01:29:58;979.63;;;908.00;;
11767;SDS011;5941;57.652;12.514;2023-04-22T01:32:24;1001.17;;;926.87;;
11767;SDS011;5941;57.652;12.514;2023-04-22T01:34:50;1022.03;;;943.80;;
11767;SDS011;5941;57.652;12.514;2023-04-22T01:37:16;1024.43;;;945.93;;
11767;SDS011;5941;57.652;12.514;2023-04-22T01:39:42;1008.30;;;931.27;;
11767;SDS011;5941;57.652;12.514;2023-04-22T01:42:08;998.20;;;922.67;;
11767;SDS011;5941;57.652;12.514;2023-04-22T01:44:35;997.80;;;921.97;;
11767;SDS011;5941;57.652;12.514;2023-04-22T01:47:01;1002.23;;;927.40;;
11767;SDS011;5941;57.652;12.514;2023-04-22T01:49:27;1005.40;;;927.63;;
11767;SDS011;5941;57.652;12.514;2023-04-22T01:51:53;1027.67;;;941.67;;
11767;SDS011;5941;57.652;12.514;2023-04-22T01:54:18;1001.53;;;924.77;;
11767;SDS011;5941;57.652;12.514;2023-04-22T01:56:51;1011.77;;;931.63;;
11767;SDS011;5941;57.652;12.514;2023-04-22T01:59:18;1009.23;;;929.20;;
11767;SDS011;5941;57.652;12.514;2023-04-22T02:01:45;1043.00;;;953.60;;
11767;SDS011;5941;57.652;12.514;2023-04-22T02:04:10;1090.73;;;987.57;;
11767;SDS011;5941;57.652;12.514;2023-04-22T02:06:36;975.20;;;902.27;;
11767;SDS011;5941;57.652;12.514;2023-04-22T02:09:02;985.30;;;913.63;;
11767;SDS011;5941;57.652;12.514;2023-04-22T02:11:28;979.27;;;908.17;;
11767;SDS011;5941;57.652;12.514;2023-04-22T02:13:54;998.83;;;919.10;;
11767;SDS011;5941;57.652;12.514;2023-04-22T02:16:20;980.83;;;907.20;;
11767;SDS011;5941;57.652;12.514;2023-04-22T02:18:47;1002.00;;;927.03;;
11767;SDS011;5941;57.652;12.514;2023-04-22T02:21:13;1009.70;;;935.43;;
11767;SDS011;5941;57.652;12.514;2023-04-22T02:23:38;1003.73;;;929.63;;
11767;SDS011;5941;57.652;12.514;2023-04-22T02:26:05;970.47;;;900.03;;
11767;SDS011;5941;57.652;12.514;2023-04-22T02:28:31;965.70;;;896.07;;
11767;SDS011;5941;57.652;12.514;2023-04-22T02:30:57;964.57;;;894.93;;
11767;SDS011;5941;57.652;12.514;2023-04-22T02:33:23;1000.23;;;921.63;;
11767;SDS011;5941;57.652;12.514;2023-04-22T02:35:49;996.20;;;917.13;;
11767;SDS011;5941;57.652;12.514;2023-04-22T02:38:15;992.50;;;917.50;;
11767;SDS011;5941;57.652;12.514;2023-04-22T02:40:41;995.43;;;918.13;;
11767;SDS011;5941;57.652;12.514;2023-04-22T02:43:07;984.23;;;908.37;;
11767;SDS011;5941;57.652;12.514;2023-04-22T02:45:33;1001.07;;;922.43;;
11767;SDS011;5941;57.652;12.514;2023-04-22T02:47:59;971.03;;;898.73;;
11767;SDS011;5941;57.652;12.514;2023-04-22T02:50:25;954.73;;;885.83;;
11767;SDS011;5941;57.652;12.514;2023-04-22T02:52:51;968.23;;;894.97;;
11767;SDS011;5941;57.652;12.514;2023-04-22T02:55:17;961.57;;;891.40;;
11767;SDS011;5941;57.652;12.514;2023-04-22T02:57:43;961.53;;;890.87;;
11767;SDS011;5941;57.652;12.514;2023-04-22T03:00:09;960.50;;;890.17;;
11767;SDS011;5941;57.652;12.514;2023-04-22T03:02:35;936.40;;;871.00;;
11767;SDS011;5941;57.652;12.514;2023-04-22T03:05:02;949.80;;;880.93;;
11767;SDS011;5941;57.652;12.514;2023-04-22T03:07:28;947.33;;;880.67;;
11767;SDS011;5941;57.652;12.514;2023-04-22T03:09:54;974.93;;;901.37;;
11767;SDS011;5941;57.652;12.514;2023-04-22T03:12:20;966.30;;;895.10;;
11767;SDS011;5941;57.652;12.514;2023-04-22T03:14:46;943.87;;;876.30;;
11767;SDS011;5941;57.652;12.514;2023-04-22T03:17:12;948.87;;;880.80;;
11767;SDS011;5941;57.652;12.514;2023-04-22T03:19:38;943.60;;;876.30;;
11767;SDS011;5941;57.652;12.514;2023-04-22T03:22:04;974.30;;;900.83;;
11767;SDS011;5941;57.652;12.514;2023-04-22T03:24:30;939.33;;;872.37;;
11767;SDS011;5941;57.652;12.514;2023-04-22T03:26:56;966.57;;;894.47;;
11767;SDS011;5941;57.652;12.514;2023-04-22T03:29:22;939.77;;;874.67;;
11767;SDS011;5941;57.652;12.514;2023-04-22T03:31:48;940.20;;;874.23;;
11767;SDS011;5941;57.652;12.514;2023-04-22T03:34:14;950.23;;;883.50;;
11767;SDS011;5941;57.652;12.514;2023-04-22T03:36:40;949.30;;;882.37;;
11767;SDS011;5941;57.652;12.514;2023-04-22T03:39:06;942.23;;;876.50;;
11767;SDS011;5941;57.652;12.514;2023-04-22T03:41:32;937.33;;;872.40;;
11767;SDS011;5941;57.652;12.514;2023-04-22T03:43:58;936.43;;;870.93;;
11767;SDS011;5941;57.652;12.514;2023-04-22T03:46:24;945.60;;;877.90;;
11767;SDS011;5941;57.652;12.514;2023-04-22T03:48:50;954.50;;;886.30;;
11767;SDS011;5941;57.652;12.514;2023-04-22T03:51:16;979.20;;;906.83;;
11767;SDS011;5941;57.652;12.514;2023-04-22T03:53:41;929.70;;;865.30;;
11767;SDS011;5941;57.652;12.514;2023-04-22T03:56:07;950.50;;;883.97;;
11767;SDS011;5941;57.652;12.514;2023-04-22T03:58:33;956.93;;;888.03;;
11767;SDS011;5941;57.652;12.514;2023-04-22T04:00:59;947.40;;;880.17;;
11767;SDS011;5941;57.652;12.514;2023-04-22T04:03:25;942.87;;;877.50;;
11767;SDS011;5941;57.652;12.514;2023-04-22T04:05:51;1999.90;;;999.90;;
11767;SDS011;5941;57.652;12.514;2023-04-22T04:08:17;1999.90;;;999.90;;
11767;SDS011;5941;57.652;12.514;2023-04-22T04:10:43;1999.90;;;999.90;;
11767;SDS011;5941;57.652;12.514;2023-04-22T04:13:09;1999.90;;;999.90;;
11767;SDS011;5941;57.652;12.514;2023-04-22T04:15:35;1999.90;;;999.90;;
11767;SDS011;5941;57.652;12.514;2023-04-22T04:18:01;1999.90;;;999.90;;
11767;SDS011;5941;57.652;12.514;2023-04-22T04:20:27;1999.90;;;999.90;;
11767;SDS011;5941;57.652;12.514;2023-04-22T04:22:53;1999.90;;;999.90;;
11767;SDS011;5941;57.652;12.514;2023-04-22T04:25:20;1999.90;;;999.90;;
11767;SDS011;5941;57.652;12.514;2023-04-22T04:27:46;1999.90;;;999.90;;
11767;SDS011;5941;57.652;12.514;2023-04-22T04:30:12;1999.90;;;999.90;;
11767;SDS011;5941;57.652;12.514;2023-04-22T04:32:40;1999.90;;;999.90;;
11767;SDS011;5941;57.652;12.514;2023-04-22T04:35:07;1999.90;;;999.90;;
11767;SDS011;5941;57.652;12.514;2023-04-22T04:37:33;1999.90;;;999.90;;
11767;SDS011;5941;57.652;12.514;2023-04-22T04:40:01;1999.90;;;999.90;;
11767;SDS011;5941;57.652;12.514;2023-04-22T04:42:26;1999.90;;;999.90;;
11767;SDS011;5941;57.652;12.514;2023-04-22T04:44:54;1999.90;;;999.90;;
11767;SDS011;5941;57.652;12.514;2023-04-22T04:47:22;1999.90;;;999.90;;
11767;SDS011;5941;57.652;12.514;2023-04-22T04:49:48;1999.90;;;999.90;;
11767;SDS011;5941;57.652;12.514;2023-04-22T04:52:17;1999.90;;;999.90;;
11767;SDS011;5941;57.652;12.514;2023-04-22T04:54:43;1999.90;;;999.90;;
11767;SDS011;5941;57.652;12.514;2023-04-22T04:57:09;1999.90;;;999.90;;
11767;SDS011;5941;57.652;12.514;2023-04-22T04:59:35;1999.90;;;999.90;;
11767;SDS011;5941;57.652;12.514;2023-04-22T05:02:01;1999.90;;;999.90;;
11767;SDS011;5941;57.652;12.514;2023-04-22T05:04:26;1999.90;;;999.90;;
11767;SDS011;5941;57.652;12.514;2023-04-22T05:06:52;1999.90;;;999.90;;
11767;SDS011;5941;57.652;12.514;2023-04-22T05:09:18;1999.90;;;999.90;;
11767;SDS011;5941;57.652;12.514;2023-04-22T05:11:44;1999.90;;;999.90;;
11767;SDS011;5941;57.652;12.514;2023-04-22T05:14:10;1999.90;;;999.90;;
11767;SDS011;5941;57.652;12.514;2023-04-22T05:16:36;1999.90;;;999.90;;
11767;SDS011;5941;57.652;12.514;2023-04-22T05:19:02;1999.90;;;999.90;;
11767;SDS011;5941;57.652;12.514;2023-04-22T05:21:28;1999.90;;;999.90;;
11767;SDS011;5941;57.652;12.514;2023-04-22T05:23:55;1999.90;;;999.90;;
11767;SDS011;5941;57.652;12.514;2023-04-22T05:26:21;1999.90;;;999.90;;
11767;SDS011;5941;57.652;12.514;2023-04-22T05:28:47;1999.90;;;999.90;;
11767;SDS011;5941;57.652;12.514;2023-04-22T05:31:13;1999.90;;;999.90;;
11767;SDS011;5941;57.652;12.514;2023-04-22T05:33:39;1999.90;;;999.90;;
11767;SDS011;5941;57.652;12.514;2023-04-22T05:36:05;1999.90;;;999.90;;
11767;SDS011;5941;57.652;12.514;2023-04-22T05:38:31;1999.90;;;999.90;;
11767;SDS011;5941;57.652;12.514;2023-04-22T05:40:57;1999.90;;;999.90;;
11767;SDS011;5941;57.652;12.514;2023-04-22T05:43:23;1999.90;;;999.90;;
11767;SDS011;5941;57.652;12.514;2023-04-22T05:45:49;1999.90;;;999.90;;
11767;SDS011;5941;57.652;12.514;2023-04-22T05:48:15;1999.90;;;999.90;;
11767;SDS011;5941;57.652;12.514;2023-04-22T05:50:41;1999.90;;;999.90;;
11767;SDS011;5941;57.652;12.514;2023-04-22T05:53:06;1999.90;;;999.90;;
11767;SDS011;5941;57.652;12.514;2023-04-22T05:55:33;1999.90;;;999.90;;
11767;SDS011;5941;57.652;12.514;2023-04-22T05:57:59;1999.90;;;999.90;;
11767;SDS011;5941;57.652;12.514;2023-04-22T06:00:25;1999.90;;;999.90;;
11767;SDS011;5941;57.652;12.514;2023-04-22T06:02:51;1999.90;;;999.90;;
11767;SDS011;5941;57.652;12.514;2023-04-22T06:05:16;1999.90;;;999.90;;
11767;SDS011;5941;57.652;12.514;2023-04-22T06:07:42;1999.90;;;999.90;;
11767;SDS011;5941;57.652;12.514;2023-04-22T06:10:08;1999.90;;;999.90;;
11767;SDS011;5941;57.652;12.514;2023-04-22T06:12:34;1999.90;;;999.90;;
11767;SDS011;5941;57.652;12.514;2023-04-22T06:15:00;1999.90;;;999.90;;
11767;SDS011;5941;57.652;12.514;2023-04-22T06:17:27;1999.90;;;999.90;;
11767;SDS011;5941;57.652;12.514;2023-04-22T06:19:52;1999.90;;;999.90;;
11767;SDS011;5941;57.652;12.514;2023-04-22T06:22:18;1999.90;;;999.90;;
11767;SDS011;5941;57.652;12.514;2023-04-22T06:24:44;1999.90;;;999.90;;
11767;SDS011;5941;57.652;12.514;2023-04-22T06:27:10;1999.90;;;999.90;;
11767;SDS011;5941;57.652;12.514;2023-04-22T06:29:36;1999.90;;;999.90;;
11767;SDS011;5941;57.652;12.514;2023-04-22T06:32:02;1999.90;;;999.90;;
11767;SDS011;5941;57.652;12.514;2023-04-22T06:34:28;1999.90;;;999.90;;
11767;SDS011;5941;57.652;12.514;2023-04-22T06:36:54;1999.90;;;999.90;;
11767;SDS011;5941;57.652;12.514;2023-04-22T06:39:20;1999.90;;;999.90;;
11767;SDS011;5941;57.652;12.514;2023-04-22T06:41:46;1999.90;;;999.90;;
11767;SDS011;5941;57.652;12.514;2023-04-22T06:44:13;1999.90;;;999.90;;
11767;SDS011;5941;57.652;12.514;2023-04-22T06:46:39;1999.90;;;999.90;;
11767;SDS011;5941;57.652;12.514;2023-04-22T06:49:05;1999.90;;;999.90;;
11767;SDS011;5941;57.652;12.514;2023-04-22T06:51:30;1999.90;;;999.90;;
11767;SDS011;5941;57.652;12.514;2023-04-22T06:53:56;1999.90;;;999.90;;
11767;SDS011;5941;57.652;12.514;2023-04-22T06:56:23;1999.90;;;999.90;;
11767;SDS011;5941;57.652;12.514;2023-04-22T06:58:49;1999.90;;;999.90;;
11767;SDS011;5941;57.652;12.514;2023-04-22T07:01:15;1999.90;;;999.90;;
11767;SDS011;5941;57.652;12.514;2023-04-22T07:03:41;1999.90;;;999.90;;
11767;SDS011;5941;57.652;12.514;2023-04-22T07:06:07;1999.90;;;999.90;;
11767;SDS011;5941;57.652;12.514;2023-04-22T07:08:34;1999.90;;;999.90;;
11767;SDS011;5941;57.652;12.514;2023-04-22T07:10:59;1999.90;;;999.90;;
11767;SDS011;5941;57.652;12.514;2023-04-22T07:13:26;1999.90;;;999.90;;
11767;SDS011;5941;57.652;12.514;2023-04-22T07:15:51;1999.90;;;999.90;;
11767;SDS011;5941;57.652;12.514;2023-04-22T07:18:18;1999.90;;;999.90;;
11767;SDS011;5941;57.652;12.514;2023-04-22T07:20:44;1999.90;;;999.90;;
11767;SDS011;5941;57.652;12.514;2023-04-22T07:23:10;1999.90;;;999.90;;
11767;SDS011;5941;57.652;12.514;2023-04-22T07:25:36;1999.90;;;999.90;;
11767;SDS011;5941;57.652;12.514;2023-04-22T07:28:02;1999.90;;;999.90;;
11767;SDS011;5941;57.652;12.514;2023-04-22T07:30:28;1999.90;;;999.90;;
11767;SDS011;5941;57.652;12.514;2023-04-22T07:32:54;1999.90;;;999.90;;
11767;SDS011;5941;57.652;12.514;2023-04-22T07:35:20;1999.90;;;999.90;;
11767;SDS011;5941;57.652;12.514;2023-04-22T07:37:46;1999.90;;;999.90;;
11767;SDS011;5941;57.652;12.514;2023-04-22T07:40:12;1999.90;;;999.90;;
11767;SDS011;5941;57.652;12.514;2023-04-22T07:42:38;1999.90;;;999.90;;
11767;SDS011;5941;57.652;12.514;2023-04-22T07:45:04;1999.90;;;999.90;;
11767;SDS011;5941;57.652;12.514;2023-04-22T07:47:31;1999.90;;;999.90;;
11767;SDS011;5941;57.652;12.514;2023-04-22T07:49:57;1999.90;;;999.90;;
11767;SDS011;5941;57.652;12.514;2023-04-22T07:52:23;1999.90;;;999.90;;
11767;SDS011;5941;57.652;12.514;2023-04-22T07:54:49;1999.90;;;999.90;;
11767;SDS011;5941;57.652;12.514;2023-04-22T07:57:15;1999.90;;;999.90;;
11767;SDS011;5941;57.652;12.514;2023-04-22T07:59:41;1999.90;;;999.90;;
11767;SDS011;5941;57.652;12.514;2023-04-22T08:02:07;1999.90;;;999.90;;
11767;SDS011;5941;57.652;12.514;2023-04-22T08:04:33;1999.90;;;999.90;;
11767;SDS011;5941;57.652;12.514;2023-04-22T08:06:59;1999.90;;;999.90;;
11767;SDS011;5941;57.652;12.514;2023-04-22T08:09:27;1999.90;;;999.90;;
11767;SDS011;5941;57.652;12.514;2023-04-22T08:11:53;1999.90;;;999.90;;
11767;SDS011;5941;57.652;12.514;2023-04-22T08:14:19;1999.90;;;999.90;;
11767;SDS011;5941;57.652;12.514;2023-04-22T08:16:45;1999.90;;;999.90;;
11767;SDS011;5941;57.652;12.514;2023-04-22T08:19:11;1999.90;;;999.90;;
11767;SDS011;5941;57.652;12.514;2023-04-22T08:21:36;1999.90;;;999.90;;
11767;SDS011;5941;57.652;12.514;2023-04-22T08:24:03;1999.90;;;999.90;;
11767;SDS011;5941;57.652;12.514;2023-04-22T08:26:29;1999.90;;;999.90;;
11767;SDS011;5941;57.652;12.514;2023-04-22T08:28:55;1999.90;;;999.90;;
11767;SDS011;5941;57.652;12.514;2023-04-22T08:31:21;1999.90;;;999.90;;
11767;SDS011;5941;57.652;12.514;2023-04-22T08:33:47;1999.90;;;999.90;;
11767;SDS011;5941;57.652;12.514;2023-04-22T08:36:14;1999.90;;;999.90;;
11767;SDS011;5941;57.652;12.514;2023-04-22T08:38:40;1999.90;;;999.90;;
11767;SDS011;5941;57.652;12.514;2023-04-22T08:41:06;1999.90;;;999.90;;
11767;SDS011;5941;57.652;12.514;2023-04-22T08:43:33;1999.90;;;999.90;;
11767;SDS011;5941;57.652;12.514;2023-04-22T08:45:59;1999.90;;;999.90;;
11767;SDS011;5941;57.652;12.514;2023-04-22T08:48:26;1999.90;;;999.90;;
11767;SDS011;5941;57.652;12.514;2023-04-22T08:50:52;1999.90;;;999.90;;
11767;SDS011;5941;57.652;12.514;2023-04-22T08:53:19;1999.90;;;999.90;;
11767;SDS011;5941;57.652;12.514;2023-04-22T08:55:45;1999.90;;;999.90;;
11767;SDS011;5941;57.652;12.514;2023-04-22T08:58:13;1999.90;;;999.90;;
11767;SDS011;5941;57.652;12.514;2023-04-22T09:00:43;1999.90;;;999.90;;
11767;SDS011;5941;57.652;12.514;2023-04-22T09:03:09;1999.90;;;999.90;;
11767;SDS011;5941;57.652;12.514;2023-04-22T09:05:36;1999.90;;;999.90;;
11767;SDS011;5941;57.652;12.514;2023-04-22T09:08:04;1999.90;;;999.90;;
11767;SDS011;5941;57.652;12.514;2023-04-22T09:10:31;1999.90;;;999.90;;
11767;SDS011;5941;57.652;12.514;2023-04-22T09:12:58;1999.90;;;999.90;;
11767;SDS011;5941;57.652;12.514;2023-04-22T09:15:24;1999.90;;;999.90;;
11767;SDS011;5941;57.652;12.514;2023-04-22T09:17:51;1999.90;;;999.90;;
11767;SDS011;5941;57.652;12.514;2023-04-22T09:20:17;1999.90;;;999.90;;
11767;SDS011;5941;57.652;12.514;2023-04-22T09:22:45;1999.90;;;999.90;;
11767;SDS011;5941;57.652;12.514;2023-04-22T09:25:14;1999.90;;;999.90;;
11767;SDS011;5941;57.652;12.514;2023-04-22T09:27:41;1999.90;;;999.90;;
11767;SDS011;5941;57.652;12.514;2023-04-22T09:30:08;1999.90;;;999.90;;
11767;SDS011;5941;57.652;12.514;2023-04-22T09:32:34;1999.90;;;999.90;;
11767;SDS011;5941;57.652;12.514;2023-04-22T09:35:00;1999.90;;;999.90;;
11767;SDS011;5941;57.652;12.514;2023-04-22T09:37:26;1999.90;;;999.90;;
11767;SDS011;5941;57.652;12.514;2023-04-22T09:39:52;1999.90;;;999.90;;
11767;SDS011;5941;57.652;12.514;2023-04-22T09:42:21;1999.90;;;999.90;;
11767;SDS011;5941;57.652;12.514;2023-04-22T09:44:47;1999.90;;;999.90;;
11767;SDS011;5941;57.652;12.514;2023-04-22T09:47:16;1999.90;;;999.90;;
11767;SDS011;5941;57.652;12.514;2023-04-22T09:49:46;1999.90;;;999.90;;
11767;SDS011;5941;57.652;12.514;2023-04-22T09:52:20;1999.90;;;999.90;;
11767;SDS011;5941;57.652;12.514;2023-04-22T09:54:48;1999.90;;;999.90;;
11767;SDS011;5941;57.652;12.514;2023-04-22T09:57:16;1999.90;;;999.90;;
11767;SDS011;5941;57.652;12.514;2023-04-22T09:59:42;1999.90;;;999.90;;
11767;SDS011;5941;57.652;12.514;2023-04-22T10:02:08;1999.90;;;999.90;;
11767;SDS011;5941;57.652;12.514;2023-04-22T10:04:34;1999.90;;;999.90;;
11767;SDS011;5941;57.652;12.514;2023-04-22T10:07:00;1999.90;;;999.90;;
11767;SDS011;5941;57.652;12.514;2023-04-22T10:09:29;1999.90;;;999.90;;
11767;SDS011;5941;57.652;12.514;2023-04-22T10:11:56;1999.90;;;999.90;;
11767;SDS011;5941;57.652;12.514;2023-04-22T10:14:23;1999.90;;;999.90;;
11767;SDS011;5941;57.652;12.514;2023-04-22T10:16:49;1999.90;;;999.90;;
11767;SDS011;5941;57.652;12.514;2023-04-22T10:19:18;1999.90;;;999.90;;
11767;SDS011;5941;57.652;12.514;2023-04-22T10:21:45;1999.90;;;999.90;;
11767;SDS011;5941;57.652;12.514;2023-04-22T10:24:15;1999.90;;;999.90;;
11767;SDS011;5941;57.652;12.514;2023-04-22T10:29:14;1999.90;;;999.90;;
11767;SDS011;5941;57.652;12.514;2023-04-22T10:31:44;1999.90;;;999.90;;
11767;SDS011;5941;57.652;12.514;2023-04-22T10:34:11;1999.90;;;999.90;;
11767;SDS011;5941;57.652;12.514;2023-04-22T10:36:57;1999.90;;;999.90;;
11767;SDS011;5941;57.652;12.514;2023-04-22T10:39:24;1999.90;;;999.90;;
11767;SDS011;5941;57.652;12.514;2023-04-22T10:41:51;1999.90;;;999.90;;
11767;SDS011;5941;57.652;12.514;2023-04-22T10:44:18;1999.90;;;999.90;;
11767;SDS011;5941;57.652;12.514;2023-04-22T10:49:28;1999.90;;;999.90;;
11767;SDS011;5941;57.652;12.514;2023-04-22T10:51:58;1999.90;;;999.90;;
11767;SDS011;5941;57.652;12.514;2023-04-22T10:59:32;1999.90;;;999.90;;
11767;SDS011;5941;57.652;12.514;2023-04-22T11:02:01;1999.90;;;999.90;;
11767;SDS011;5941;57.652;12.514;2023-04-22T11:04:28;1999.90;;;999.90;;
11767;SDS011;5941;57.652;12.514;2023-04-22T11:09:45;1999.90;;;999.90;;
11767;SDS011;5941;57.652;12.514;2023-04-22T11:14:56;1999.90;;;999.90;;
11767;SDS011;5941;57.652;12.514;2023-04-22T11:17:22;1999.90;;;999.90;;
11767;SDS011;5941;57.652;12.514;2023-04-22T11:19:48;1999.90;;;999.90;;
11767;SDS011;5941;57.652;12.514;2023-04-22T11:22:20;1999.90;;;999.90;;
11767;SDS011;5941;57.652;12.514;2023-04-22T11:24:52;1999.90;;;999.90;;
11767;SDS011;5941;57.652;12.514;2023-04-22T11:27:18;1999.90;;;999.90;;
11767;SDS011;5941;57.652;12.514;2023-04-22T11:30:06;1999.90;;;999.90;;
11767;SDS011;5941;57.652;12.514;2023-04-22T11:32:32;1999.90;;;999.90;;
11767;SDS011;5941;57.652;12.514;2023-04-22T11:35:01;1999.90;;;999.90;;
11767;SDS011;5941;57.652;12.514;2023-04-22T11:37:28;1999.90;;;999.90;;
11767;SDS011;5941;57.652;12.514;2023-04-22T11:40:00;1999.90;;;999.90;;
11767;SDS011;5941;57.652;12.514;2023-04-22T11:42:28;1999.90;;;999.90;;
11767;SDS011;5941;57.652;12.514;2023-04-22T11:44:54;1999.90;;;999.90;;
11767;SDS011;5941;57.652;12.514;2023-04-22T11:47:20;1999.90;;;999.90;;
11767;SDS011;5941;57.652;12.514;2023-04-22T11:49:57;1999.90;;;999.90;;
11767;SDS011;5941;57.652;12.514;2023-04-22T11:52:23;1999.90;;;999.90;;
11767;SDS011;5941;57.652;12.514;2023-04-22T11:54:50;1999.90;;;999.90;;
11767;SDS011;5941;57.652;12.514;2023-04-22T11:57:16;1999.90;;;999.90;;
11767;SDS011;5941;57.652;12.514;2023-04-22T11:59:55;1999.90;;;999.90;;
11767;SDS011;5941;57.652;12.514;2023-04-22T12:02:21;1999.90;;;999.90;;
11767;SDS011;5941;57.652;12.514;2023-04-22T12:04:48;1999.90;;;999.90;;
11767;SDS011;5941;57.652;12.514;2023-04-22T12:07:14;1999.90;;;999.90;;
11767;SDS011;5941;57.652;12.514;2023-04-22T12:09:40;1999.90;;;999.90;;
11767;SDS011;5941;57.652;12.514;2023-04-22T12:12:06;1999.90;;;999.90;;
11767;SDS011;5941;57.652;12.514;2023-04-22T12:14:35;1999.90;;;999.90;;
11767;SDS011;5941;57.652;12.514;2023-04-22T12:17:02;1999.90;;;999.90;;
11767;SDS011;5941;57.652;12.514;2023-04-22T12:19:29;1999.90;;;999.90;;
11767;SDS011;5941;57.652;12.514;2023-04-22T12:21:55;1999.90;;;999.90;;
11767;SDS011;5941;57.652;12.514;2023-04-22T12:24:28;1999.90;;;999.90;;
11767;SDS011;5941;57.652;12.514;2023-04-22T12:26:54;1999.90;;;999.90;;
11767;SDS011;5941;57.652;12.514;2023-04-22T12:29:30;1999.90;;;999.90;;
11767;SDS011;5941;57.652;12.514;2023-04-22T12:31:56;1999.90;;;999.90;;
11767;SDS011;5941;57.652;12.514;2023-04-22T12:34:22;1999.90;;;999.90;;
11767;SDS011;5941;57.652;12.514;2023-04-22T12:36:48;1999.90;;;999.90;;
11767;SDS011;5941;57.652;12.514;2023-04-22T12:39:15;1999.90;;;999.90;;
11767;SDS011;5941;57.652;12.514;2023-04-22T12:41:40;1999.90;;;999.90;;
11767;SDS011;5941;57.652;12.514;2023-04-22T12:44:06;1999.90;;;999.90;;
11767;SDS011;5941;57.652;12.514;2023-04-22T12:46:32;1999.90;;;999.90;;
11767;SDS011;5941;57.652;12.514;2023-04-22T12:48:59;1999.90;;;999.90;;
11767;SDS011;5941;57.652;12.514;2023-04-22T12:51:25;1999.90;;;999.90;;
11767;SDS011;5941;57.652;12.514;2023-04-22T12:53:51;1999.90;;;999.90;;
11767;SDS011;5941;57.652;12.514;2023-04-22T12:56:17;1999.90;;;999.90;;
11767;SDS011;5941;57.652;12.514;2023-04-22T12:58:43;1999.90;;;999.90;;
11767;SDS011;5941;57.652;12.514;2023-04-22T13:01:09;1999.90;;;999.90;;
11767;SDS011;5941;57.652;12.514;2023-04-22T13:03:35;1999.90;;;999.90;;
11767;SDS011;5941;57.652;12.514;2023-04-22T13:06:01;1999.90;;;999.90;;
11767;SDS011;5941;57.652;12.514;2023-04-22T13:08:27;1999.90;;;999.90;;
11767;SDS011;5941;57.652;12.514;2023-04-22T13:10:53;1999.90;;;999.90;;
11767;SDS011;5941;57.652;12.514;2023-04-22T13:13:19;1999.90;;;999.90;;
11767;SDS011;5941;57.652;12.514;2023-04-22T13:15:46;1999.90;;;999.90;;
11767;SDS011;5941;57.652;12.514;2023-04-22T13:18:17;1999.90;;;999.90;;
11767;SDS011;5941;57.652;12.514;2023-04-22T13:20:42;1999.90;;;999.90;;
11767;SDS011;5941;57.652;12.514;2023-04-22T13:23:09;1999.90;;;999.90;;
11767;SDS011;5941;57.652;12.514;2023-04-22T13:25:35;1999.90;;;999.90;;
11767;SDS011;5941;57.652;12.514;2023-04-22T13:28:01;1999.90;;;999.90;;
11767;SDS011;5941;57.652;12.514;2023-04-22T13:30:27;1999.90;;;999.90;;
11767;SDS011;5941;57.652;12.514;2023-04-22T13:32:53;1999.90;;;999.90;;
11767;SDS011;5941;57.652;12.514;2023-04-22T13:35:19;1999.90;;;999.90;;
11767;SDS011;5941;57.652;12.514;2023-04-22T13:37:46;1999.90;;;999.90;;
11767;SDS011;5941;57.652;12.514;2023-04-22T13:40:12;1999.90;;;999.90;;
11767;SDS011;5941;57.652;12.514;2023-04-22T13:42:38;1999.90;;;999.90;;
11767;SDS011;5941;57.652;12.514;2023-04-22T13:45:04;1999.90;;;999.90;;
11767;SDS011;5941;57.652;12.514;2023-04-22T13:47:30;1999.90;;;999.90;;
11767;SDS011;5941;57.652;12.514;2023-04-22T13:49:56;1999.90;;;999.90;;
11767;SDS011;5941;57.652;12.514;2023-04-22T13:52:24;1999.90;;;999.90;;
11767;SDS011;5941;57.652;12.514;2023-04-22T13:54:50;1999.90;;;999.90;;
11767;SDS011;5941;57.652;12.514;2023-04-22T13:57:18;1999.90;;;999.90;;
11767;SDS011;5941;57.652;12.514;2023-04-22T13:59:44;1999.90;;;999.90;;